Time;durP1;ratioP1;P1;durP2;ratioP2;P2;SDS_P1;SDS_P2;PMS_P1;PMS_P2;Temp;Humidity;BMP_temperature;BMP_pressure;BME280_temperature;BME280_humidity;BME280_pressure;Samples;Min_cycle;Max_cycle;Signal;HPM_P1;HPM_P2
2022/09/01 00:01:22;;;;;;;5.53;1.48;;;;;;;22.77;45.39;102280.22;5073591;28;20040;-75
2022/09/01 00:03:48;;;;;;;8.70;2.08;;;;;;;22.63;45.74;102285.41;5091436;28;20036;-73
2022/09/01 00:06:21;;;;;;;10.07;1.92;;;;;;;22.54;45.80;102291.63;5091484;28;20479;-74
2022/09/01 00:08:48;;;;;;;4.82;1.85;;;;;;;22.55;46.36;102279.56;5087941;28;20366;-75
2022/09/01 00:11:13;;;;;;;8.90;1.80;;;;;;;22.58;46.13;102282.63;5091718;28;20042;-74
2022/09/01 00:13:38;;;;;;;3.47;1.88;;;;;;;22.50;45.74;102282.31;5091480;28;20400;-75
2022/09/01 00:16:04;;;;;;;9.82;1.60;;;;;;;22.66;45.48;102279.34;5091042;28;20052;-74
2022/09/01 00:18:31;;;;;;;2.13;1.58;;;;;;;22.43;46.41;102279.81;5090698;28;20044;-76
2022/09/01 00:20:58;;;;;;;5.50;2.85;;;;;;;22.47;46.50;102280.09;5091898;28;20024;-76
2022/09/01 00:23:38;;;;;;;3.10;1.90;;;;;;;22.41;45.92;102279.25;5091235;28;20526;-74
2022/09/01 00:26:04;;;;;;;;;;;;;;;22.47;45.54;102277.34;5083854;28;20028;-72
2022/09/01 00:28:33;;;;;;;7.38;1.48;;;;;;;22.40;46.15;102283.09;5090985;28;19923;-74
2022/09/01 00:30:58;;;;;;;6.38;2.60;;;;;;;22.41;45.82;102279.25;5091144;28;20046;-77
2022/09/01 00:33:24;;;;;;;3.22;1.60;;;;;;;22.31;46.00;102292.13;5072466;28;20032;-74
2022/09/01 00:35:49;;;;;;;7.30;2.08;;;;;;;22.34;46.20;102277.88;5091455;28;20352;-75
2022/09/01 00:38:14;;;;;;;4.40;2.05;;;;;;;22.22;46.54;102275.38;5090987;28;20032;-73
2022/09/01 00:40:40;;;;;;;3.38;1.60;;;;;;;22.17;46.39;102278.06;5089885;28;20032;-74
2022/09/01 00:43:35;;;;;;;6.88;3.55;;;;;;;22.34;45.78;102280.59;5091372;28;20028;-76
2022/09/01 00:46:05;;;;;;;3.25;1.52;;;;;;;22.25;45.87;102279.50;5088415;28;20039;-75
2022/09/01 00:48:30;;;;;;;8.15;2.70;;;;;;;22.27;45.88;102275.38;5090677;28;20059;-74
2022/09/01 00:50:56;;;;;;;5.13;2.05;;;;;;;22.24;45.71;102278.66;5091083;28;20112;-75
2022/09/01 00:53:22;;;;;;;1.73;1.40;;;;;;;22.21;46.11;102278.38;5091063;28;20073;-74
2022/09/01 00:55:47;;;;;;;5.47;2.10;;;;;;;22.18;45.84;102274.25;5072327;28;20032;-74
2022/09/01 00:58:13;;;;;;;4.38;1.73;;;;;;;22.14;45.69;102278.63;5071934;28;20032;-73
2022/09/01 01:00:39;;;;;;;2.53;1.75;;;;;;;22.14;45.44;102275.88;5090257;28;20103;-73
2022/09/01 01:03:13;;;;;;;3.08;1.92;;;;;;;22.11;46.07;102278.34;5091168;28;20515;-74
2022/09/01 01:05:45;;;;;;;5.40;1.73;;;;;;;22.04;46.02;102275.00;5093867;28;20044;-76
2022/09/01 01:08:11;;;;;;;3.50;2.08;;;;;;;22.00;46.21;102277.44;5089806;28;20535;-75
2022/09/01 01:10:40;;;;;;;4.03;1.75;;;;;;;22.09;45.63;102275.88;5090054;28;20047;-75
2022/09/01 01:13:12;;;;;;;3.38;1.98;;;;;;;22.09;45.73;102275.03;5089617;28;20032;-75
2022/09/01 01:15:42;;;;;;;7.65;2.40;;;;;;;21.95;45.74;102282.91;5087994;28;20054;-74
2022/09/01 01:18:12;;;;;;;6.80;2.40;;;;;;;21.86;45.79;102272.72;5090684;28;20044;-74
2022/09/01 01:23:53;;;;;;;3.38;2.03;;;;;;;21.74;46.54;102270.97;5091347;28;20039;-74
2022/09/01 01:26:19;;;;;;;6.63;1.85;;;;;;;21.76;46.32;102267.97;5072836;28;20093;-74
2022/09/01 01:28:44;;;;;;;4.70;2.20;;;;;;;21.77;46.10;102269.63;5091246;28;20031;-74
2022/09/01 01:31:17;;;;;;;4.55;1.75;;;;;;;21.76;46.34;102271.53;5091506;28;20032;-73
2022/09/01 01:33:55;;;;;;;4.05;2.13;;;;;;;21.79;46.26;102264.72;5086393;28;20037;-75
2022/09/01 01:36:35;;;;;;;3.13;1.60;;;;;;;21.87;45.43;102272.47;5072843;28;20086;-74
2022/09/01 01:39:24;;;;;;;5.00;2.10;;;;;;;21.68;45.69;102268.47;5088848;28;20496;-74
2022/09/01 01:41:51;;;;;;;4.22;2.22;;;;;;;21.71;45.91;102268.78;5094873;28;20094;-75
2022/09/01 01:44:19;;;;;;;2.90;2.10;;;;;;;21.74;45.73;102268.25;5094886;28;20032;-74
2022/09/01 01:46:49;;;;;;;5.40;2.20;;;;;;;21.62;46.03;102269.53;5094617;28;20040;-75
2022/09/01 01:49:19;;;;;;;5.53;2.35;;;;;;;21.47;46.57;102272.16;5094829;28;20114;-74
2022/09/01 01:51:47;;;;;;;3.00;1.92;;;;;;;21.52;46.31;102278.47;5094476;28;20032;-74
2022/09/01 01:54:14;;;;;;;4.72;1.92;;;;;;;21.35;46.67;102268.78;5094180;28;20487;-73
2022/09/01 01:56:40;;;;;;;7.03;3.20;;;;;;;21.19;46.82;102272.50;5075606;28;20032;-75
2022/09/01 01:59:12;;;;;;;8.10;2.33;;;;;;;21.45;46.17;102275.16;5094415;28;20090;-75
2022/09/01 02:01:39;;;;;;;2.90;2.00;;;;;;;21.49;45.53;102273.56;5087295;28;20036;-73
2022/09/01 02:04:08;;;;;;;2.88;2.17;;;;;;;21.43;45.96;102274.59;5094130;28;20031;-74
2022/09/01 02:06:34;;;;;;;2.90;2.10;;;;;;;21.44;45.77;102272.69;5094140;28;20032;-72
2022/09/01 02:09:02;;;;;;;7.18;2.20;;;;;;;21.27;46.26;102263.78;5093930;28;20167;-74
2022/09/01 02:11:28;;;;;;;4.70;2.63;;;;;;;21.02;47.13;102264.41;5093680;28;20072;-74
2022/09/01 02:13:56;;;;;;;6.47;2.63;;;;;;;21.04;47.06;102264.97;5093192;28;20055;-75
2022/09/01 02:16:23;;;;;;;2.30;2.10;;;;;;;21.24;46.07;102262.44;5093937;28;20033;-73
2022/09/01 02:18:50;;;;;;;5.35;2.42;;;;;;;21.35;45.85;102276.97;5093626;28;20059;-73
2022/09/01 02:21:19;;;;;;;3.92;1.98;;;;;;;21.25;45.92;102265.97;5094049;28;20043;-74
2022/09/01 02:24:00;;;;;;;4.35;2.20;;;;;;;21.18;46.03;102270.84;5093881;28;20020;-74
2022/09/01 02:26:30;;;;;;;6.63;2.38;;;;;;;21.19;45.56;102267.84;5093110;28;20040;-73
2022/09/01 02:29:00;;;;;;;5.03;2.33;;;;;;;21.26;45.86;102264.91;5075608;28;20032;-73
2022/09/01 02:31:27;;;;;;;3.53;2.37;;;;;;;21.20;45.72;102266.78;5093286;28;20036;-74
2022/09/01 02:33:53;;;;;;;5.25;2.10;;;;;;;21.18;45.83;102266.19;5092746;28;20039;-73
2022/09/01 02:36:19;;;;;;;5.03;2.25;;;;;;;21.22;45.38;102267.34;5093104;28;20036;-75
2022/09/01 02:38:47;;;;;;;3.95;2.10;;;;;;;21.16;45.71;102265.63;5093550;28;20024;-74
2022/09/01 02:41:14;;;;;;;2.15;1.83;;;;;;;21.04;46.24;102267.72;5093170;28;20040;-75
2022/09/01 02:43:42;;;;;;;2.53;1.92;;;;;;;20.89;46.43;102276.56;5092933;28;20039;-74
2022/09/01 02:46:07;;;;;;;5.32;2.08;;;;;;;20.98;46.03;102266.00;5092651;28;20036;-74
2022/09/01 02:48:36;;;;;;;3.47;1.85;;;;;;;21.09;45.48;102266.94;5093100;28;20036;-74
2022/09/01 02:51:05;;;;;;;3.78;2.33;;;;;;;21.03;45.75;102270.72;5093179;28;20099;-75
2022/09/01 02:53:33;;;;;;;5.22;2.45;;;;;;;20.89;46.20;102271.09;5092658;28;20036;-74
2022/09/01 02:55:59;;;;;;;5.15;2.00;;;;;;;20.90;46.42;102270.03;5093423;28;20147;-73
2022/09/01 02:58:34;;;;;;;3.50;2.10;;;;;;;20.93;46.06;102266.75;5092549;28;20036;-73
2022/09/01 03:00:59;;;;;;;5.82;1.95;;;;;;;20.95;45.64;102266.53;5092572;28;20365;-73
2022/09/01 03:03:25;;;;;;;4.43;2.20;;;;;;;20.98;45.46;102266.00;5092634;28;20054;-74
2022/09/01 03:05:55;;;;;;;4.30;2.55;;;;;;;20.96;45.63;102263.53;5093277;28;20434;-74
2022/09/01 03:08:23;;;;;;;8.43;2.40;;;;;;;21.00;45.37;102263.81;5092698;28;20032;-74
2022/09/01 03:10:48;;;;;;;3.85;2.10;;;;;;;20.89;45.75;102267.56;5092400;28;20400;-74
2022/09/01 03:13:17;;;;;;;3.33;2.30;;;;;;;20.89;45.44;102270.28;5091483;28;20024;-73
2022/09/01 03:15:43;;;;;;;4.90;2.35;;;;;;;20.72;46.14;102267.66;5091387;28;20035;-74
2022/09/01 03:18:11;;;;;;;3.58;2.63;;;;;;;20.88;45.70;102264.00;5092495;28;20036;-74
2022/09/01 03:20:42;;;;;;;3.92;2.40;;;;;;;20.80;45.79;102261.72;5092578;28;20044;-75
2022/09/01 03:23:13;;;;;;;5.25;2.35;;;;;;;20.71;45.70;102270.66;5092343;28;20028;-75
2022/09/01 03:25:40;;;;;;;5.38;2.45;;;;;;;20.61;46.37;102259.63;5092285;28;20027;-74
2022/09/01 03:28:05;;;;;;;6.90;3.20;;;;;;;20.63;45.90;102268.38;5092204;28;20039;-74
2022/09/01 03:30:34;;;;;;;9.25;2.70;;;;;;;20.60;46.12;102263.44;5092532;28;20032;-75
2022/09/01 03:33:01;;;;;;;4.35;2.40;;;;;;;20.52;46.35;102272.88;5092209;28;20051;-75
2022/09/01 03:35:29;;;;;;;3.78;2.20;;;;;;;20.63;45.91;102271.94;5091747;28;20431;-76
2022/09/01 03:37:57;;;;;;;5.90;2.30;;;;;;;20.47;46.58;102266.56;5091786;28;20492;-74
2022/09/01 03:40:26;;;;;;;4.78;2.00;;;;;;;20.56;46.16;102273.22;5092397;28;20040;-76
2022/09/01 03:42:52;;;;;;;5.25;2.63;;;;;;;20.51;46.27;102265.78;5092330;28;20030;-73
2022/09/01 03:45:19;;;;;;;3.22;2.35;;;;;;;20.48;46.10;102266.28;5091857;28;20570;-75
2022/09/01 03:47:45;;;;;;;11.50;2.88;;;;;;;20.56;46.00;102273.22;5092855;28;20031;-75
2022/09/01 03:50:19;;;;;;;3.13;2.17;;;;;;;20.57;46.02;102264.78;5087496;28;20036;-74
2022/09/01 03:52:48;;;;;;;7.20;2.90;;;;;;;20.56;45.95;102260.38;5095547;28;20058;-74
2022/09/01 03:55:22;;;;;;;3.00;2.13;;;;;;;20.51;46.14;102271.25;5092240;28;20135;-74
2022/09/01 03:57:50;;;;;;;3.25;2.30;;;;;;;20.49;45.91;102270.69;5092007;28;20450;-74
2022/09/01 04:00:19;;;;;;;3.40;2.40;;;;;;;20.55;45.94;102266.94;5091994;28;20020;-74
2022/09/01 04:02:49;;;;;;;4.60;2.47;;;;;;;20.56;45.34;102268.56;5084803;28;20036;-75
2022/09/01 04:05:15;;;;;;;4.00;2.38;;;;;;;20.49;46.01;102270.69;5087262;28;20109;-75
2022/09/01 04:07:40;;;;;;;4.28;1.85;;;;;;;20.47;45.74;102270.13;5088164;28;20042;-75
2022/09/01 04:10:10;;;;;;;4.50;2.78;;;;;;;20.48;45.88;102263.56;5091148;28;20028;-75
2022/09/01 04:12:36;;;;;;;2.47;2.17;;;;;;;20.27;46.23;102261.69;5090683;28;20036;-74
2022/09/01 04:15:02;;;;;;;7.28;2.85;;;;;;;20.31;46.38;102256.53;5091801;28;20042;-75
2022/09/01 04:20:14;;;;;;;8.68;3.10;;;;;;;20.35;46.07;102254.94;5091603;28;20074;-73
2022/09/01 04:22:39;;;;;;;3.35;3.05;;;;;;;20.32;46.07;102258.19;5085491;28;20047;-73
2022/09/01 04:25:05;;;;;;;4.10;2.63;;;;;;;20.27;46.50;102255.38;5073452;28;20040;-73
2022/09/01 04:27:30;;;;;;;5.70;2.55;;;;;;;20.01;46.88;102257.78;5073123;28;20040;-73
2022/09/01 04:29:56;;;;;;;5.15;2.65;;;;;;;20.15;46.49;102253.59;5091016;28;20028;-74
2022/09/01 04:32:23;;;;;;;2.67;2.15;;;;;;;20.23;46.34;102252.34;5091295;28;20093;-75
2022/09/01 04:34:49;;;;;;;2.97;2.25;;;;;;;20.07;46.40;102261.41;5091047;28;20096;-73
2022/09/01 04:37:20;;;;;;;4.68;2.85;;;;;;;20.05;46.41;102261.66;5091222;28;20471;-73
2022/09/01 04:39:51;;;;;;;;;;;;;;;20.14;46.27;102257.41;5092120;28;20077;-74
2022/09/01 04:42:17;;;;;;;;;;;;;;;20.08;46.64;102252.13;5085960;28;19919;-74
2022/09/01 04:44:45;;;;;;;6.18;2.97;;;;;;;20.17;46.18;102249.81;5092027;28;19969;-75
2022/09/01 04:47:15;;;;;;;4.90;2.60;;;;;;;20.05;46.42;102255.38;5089446;28;20365;-73
2022/09/01 04:49:42;;;;;;;3.37;2.17;;;;;;;20.02;46.98;102255.88;5088102;28;20059;-74
2022/09/01 04:52:07;;;;;;;5.43;2.50;;;;;;;20.10;46.09;102255.44;5084714;28;20113;-73
2022/09/01 04:54:36;;;;;;;3.60;2.13;;;;;;;19.82;47.08;102255.59;5085139;28;20651;-74
2022/09/01 04:57:03;;;;;;;6.10;2.70;;;;;;;19.91;46.74;102248.66;5066799;28;20028;-74
2022/09/01 04:59:29;;;;;;;3.10;2.38;;;;;;;19.76;47.59;102256.59;5086979;28;20416;-74
2022/09/01 05:01:56;;;;;;;4.35;2.85;;;;;;;19.96;46.58;102249.53;5087253;28;20028;-73
2022/09/01 05:04:26;;;;;;;11.48;2.95;;;;;;;19.89;46.86;102254.34;5067398;28;20036;-75
2022/09/01 05:06:56;;;;;;;3.45;2.22;;;;;;;19.84;47.15;102253.44;5091263;28;20036;-74
2022/09/01 05:09:24;;;;;;;15.77;3.20;;;;;;;19.73;47.27;102254.41;5091161;28;20039;-74
2022/09/01 05:11:50;;;;;;;3.08;2.60;;;;;;;20.03;46.49;102254.78;5091418;28;20024;-74
2022/09/01 05:14:18;;;;;;;6.40;2.30;;;;;;;20.05;46.23;102258.91;5094806;28;20021;-74
2022/09/01 05:16:44;;;;;;;2.92;2.30;;;;;;;20.07;46.05;102248.56;5076173;28;20104;-74
2022/09/01 05:19:13;;;;;;;6.65;2.53;;;;;;;19.91;46.80;102254.91;5095825;28;20101;-76
2022/09/01 05:21:40;;;;;;;6.32;2.92;;;;;;;19.90;46.71;102255.16;5095674;28;20028;-73
2022/09/01 05:24:09;;;;;;;4.90;2.75;;;;;;;19.93;46.91;102258.22;5094635;28;20048;-75
2022/09/01 05:26:37;;;;;;;3.55;2.45;;;;;;;20.09;46.29;102272.88;5091706;28;20153;-75
2022/09/01 05:29:09;;;;;;;4.40;2.75;;;;;;;19.88;46.96;102269.06;5094436;28;20062;-74
2022/09/01 05:31:36;;;;;;;4.65;2.67;;;;;;;20.05;46.54;102275.31;5094814;28;20032;-72
2022/09/01 05:34:03;;;;;;;8.63;2.40;;;;;;;20.26;45.76;102278.31;5094392;28;20034;-75
2022/09/01 05:36:32;;;;;;;2.35;2.15;;;;;;;20.22;46.18;102279.91;5094363;28;20456;-75
2022/09/01 05:38:59;;;;;;;11.70;3.20;;;;;;;20.38;45.69;102273.56;5094892;28;20152;-74
2022/09/01 05:41:25;;;;;;;2.95;2.15;;;;;;;20.38;45.58;102285.31;5094703;28;20036;-75
2022/09/01 05:43:51;;;;;;;3.45;2.10;;;;;;;20.38;45.74;102273.56;5094681;28;20070;-73
2022/09/01 05:46:25;;;;;;;3.90;2.75;;;;;;;20.35;45.94;102277.63;5076037;28;20395;-74
2022/09/01 05:48:51;;;;;;;2.80;2.33;;;;;;;20.34;45.54;102277.88;5094425;28;20085;-73
2022/09/01 05:51:22;;;;;;;4.05;2.47;;;;;;;20.36;45.58;102279.28;5094302;28;20353;-75
2022/09/01 05:53:54;;;;;;;2.55;2.28;;;;;;;20.16;46.20;102284.47;5076918;28;20110;-73
2022/09/01 05:56:21;;;;;;;8.93;2.85;;;;;;;20.33;45.92;102278.94;5075054;28;20630;-75
2022/09/01 05:58:47;;;;;;;4.30;2.67;;;;;;;20.31;45.99;102286.56;5090328;28;20032;-73
2022/09/01 06:01:21;;;;;;;5.95;2.60;;;;;;;20.42;45.82;102277.44;5087546;28;20556;-73
2022/09/01 06:03:53;;;;;;;3.58;2.95;;;;;;;20.58;45.50;102273.81;5086616;28;20028;-75
2022/09/01 06:06:24;;;;;;;3.70;2.30;;;;;;;20.53;45.62;102281.91;5085905;28;20096;-73
2022/09/01 06:08:50;;;;;;;2.72;2.17;;;;;;;20.61;45.24;102282.28;5089460;28;20020;-73
2022/09/01 06:11:17;;;;;;;5.68;3.35;;;;;;;20.60;45.71;102280.63;5085260;28;20100;-73
2022/09/01 06:13:46;;;;;;;5.45;2.90;;;;;;;20.57;45.85;102275.69;5087788;28;20055;-75
2022/09/01 06:16:14;;;;;;;2.42;2.15;;;;;;;20.70;45.12;102280.75;5082214;28;20036;-75
2022/09/01 06:18:39;;;;;;;3.67;2.38;;;;;;;20.76;45.31;102287.09;5083832;28;20036;-72
2022/09/01 06:21:07;;;;;;;3.00;2.67;;;;;;;20.79;45.30;102283.84;5094309;28;20357;-72
2022/09/01 06:23:34;;;;;;;10.75;2.60;;;;;;;20.86;45.29;102284.44;5090260;28;20086;-74
2022/09/01 06:26:02;;;;;;;3.63;2.25;;;;;;;21.04;45.02;102284.13;5087429;28;20473;-74
2022/09/01 06:28:28;;;;;;;3.80;2.60;;;;;;;20.89;45.47;102281.22;5083457;28;20424;-74
2022/09/01 06:30:56;;;;;;;4.22;2.90;;;;;;;21.05;44.87;102276.75;5084343;28;20039;-74
2022/09/01 06:33:23;;;;;;;4.35;2.47;;;;;;;21.03;45.09;102274.25;5062472;28;20680;-74
2022/09/01 06:35:51;;;;;;;3.13;2.50;;;;;;;21.20;44.67;102285.91;5066713;28;20457;-75
2022/09/01 06:38:17;;;;;;;5.45;2.47;;;;;;;21.28;44.35;102279.97;5086243;28;20063;-75
2022/09/01 06:40:44;;;;;;;4.25;2.08;;;;;;;21.34;44.46;102281.66;5089384;28;20046;-73
2022/09/01 06:43:10;;;;;;;2.90;2.13;;;;;;;21.56;43.84;102287.00;5082163;28;20111;-74
2022/09/01 06:45:42;;;;;;;3.05;2.75;;;;;;;21.61;44.53;102284.28;5062147;28;20040;-71
2022/09/01 06:48:14;;;;;;;4.15;2.65;;;;;;;21.74;43.53;102292.88;5087862;28;20040;-68
2022/09/01 06:50:40;;;;;;;9.73;2.80;;;;;;;21.83;44.13;102288.59;5085836;28;20384;-74
2022/09/01 06:53:15;;;;;;;4.30;2.28;;;;;;;21.89;43.71;102292.19;5082562;28;20024;-76
2022/09/01 06:55:42;;;;;;;10.82;2.35;;;;;;;22.00;43.81;102293.88;5088411;28;20046;-75
2022/09/01 06:58:12;;;;;;;6.32;2.33;;;;;;;21.99;43.27;102296.88;5082223;28;20054;-75
2022/09/01 07:00:41;;;;;;;5.60;2.15;;;;;;;22.04;43.47;102288.69;5083523;28;20036;-75
2022/09/01 07:03:12;;;;;;;5.38;2.20;;;;;;;22.27;42.30;102291.81;5065823;28;20601;-74
2022/09/01 07:05:44;;;;;;;15.60;2.65;;;;;;;22.51;42.35;102300.38;5078701;28;20118;-74
2022/09/01 07:08:16;;;;;;;5.03;2.10;;;;;;;22.46;42.71;102303.13;5076372;28;20036;-75
2022/09/01 07:10:48;;;;;;;3.28;2.20;;;;;;;22.58;42.43;102301.00;5066203;28;20040;-75
2022/09/01 07:13:26;;;;;;;4.05;2.38;;;;;;;22.70;41.96;102309.81;5084526;28;20033;-75
2022/09/01 07:15:54;;;;;;;3.15;1.85;;;;;;;22.78;41.99;102309.25;5085484;28;20036;-75
2022/09/01 07:18:23;;;;;;;7.65;2.22;;;;;;;22.81;41.86;102308.72;5080050;28;20058;-76
2022/09/01 07:20:51;;;;;;;4.50;2.40;;;;;;;22.96;41.62;102313.44;5078256;28;20047;-75
2022/09/01 07:23:19;;;;;;;5.20;2.10;;;;;;;23.01;41.37;102316.16;5067678;28;20043;-75
2022/09/01 07:25:47;;;;;;;2.90;1.88;;;;;;;23.07;40.85;102302.19;5066261;28;20143;-74
2022/09/01 07:28:14;;;;;;;2.75;2.47;;;;;;;23.09;41.40;102304.66;5083784;28;20035;-76
2022/09/01 07:30:44;;;;;;;8.48;2.25;;;;;;;23.41;40.59;102300.56;5090016;28;20081;-74
2022/09/01 07:33:10;;;;;;;9.23;2.07;;;;;;;23.54;40.10;102296.47;5080220;28;20032;-75
2022/09/01 07:35:37;;;;;;;3.35;1.70;;;;;;;23.51;40.11;102306.06;5071906;28;20052;-76
2022/09/01 07:38:06;;;;;;;3.75;1.92;;;;;;;23.64;39.66;102301.09;5084282;28;20046;-75
2022/09/01 07:40:37;;;;;;;5.22;2.58;;;;;;;23.36;40.71;102299.75;5086704;28;20032;-75
2022/09/01 07:43:07;;;;;;;3.58;1.80;;;;;;;23.49;40.03;102305.50;5077715;28;20047;-75
2022/09/01 07:45:36;;;;;;;7.32;2.00;;;;;;;24.04;39.08;102295.53;5086298;28;20043;-75
2022/09/01 07:48:05;;;;;;;4.88;1.80;;;;;;;24.05;39.02;102298.03;5081909;28;20028;-75
2022/09/01 07:50:34;;;;;;;5.70;1.92;;;;;;;24.37;38.27;102301.19;5087365;28;20051;-75
2022/09/01 07:53:00;;;;;;;3.40;1.75;;;;;;;24.46;37.83;102298.69;5083979;28;20062;-74
2022/09/01 07:55:27;;;;;;;5.63;1.95;;;;;;;24.72;37.17;102302.13;5086092;28;20051;-75
2022/09/01 07:57:53;;;;;;;3.58;1.85;;;;;;;24.91;37.06;102294.84;5088600;28;20024;-75
2022/09/01 08:00:20;;;;;;;3.33;1.35;;;;;;;24.78;37.13;102301.00;5091027;28;20070;-76
2022/09/01 08:02:46;;;;;;;4.13;1.23;;;;;;;24.98;36.65;102295.38;5084727;28;20364;-74
2022/09/01 08:05:16;;;;;;;3.30;1.60;;;;;;;25.06;36.16;102292.03;5064333;28;20032;-74
2022/09/01 08:07:46;;;;;;;2.45;1.60;;;;;;;25.20;36.31;102298.47;5052144;28;20039;-75
2022/09/01 08:10:11;;;;;;;5.60;1.50;;;;;;;25.18;36.79;102300.69;5079772;28;20138;-75
2022/09/01 08:12:37;;;;;;;3.50;1.42;;;;;;;25.37;36.42;102304.41;5082262;28;20052;-75
2022/09/01 08:15:05;;;;;;;2.42;1.45;;;;;;;25.48;36.08;102297.72;5085441;28;20125;-74
2022/09/01 08:17:31;;;;;;;5.32;1.67;;;;;;;25.66;35.66;102298.94;5085446;28;20380;-76
2022/09/01 08:19:56;;;;;;;6.22;1.35;;;;;;;25.81;35.35;102304.28;5062615;28;20036;-75
2022/09/01 08:22:24;;;;;;;6.82;1.40;;;;;;;25.89;35.09;102309.16;5061973;28;20028;-73
2022/09/01 08:24:50;;;;;;;6.18;1.10;;;;;;;26.07;34.45;102309.25;5081303;28;20037;-75
2022/09/01 08:27:15;;;;;;;5.97;1.38;;;;;;;26.20;34.70;102301.41;5071361;28;20047;-76
2022/09/01 08:29:42;;;;;;;0.90;0.80;;;;;;;26.26;33.75;102305.75;5062064;28;20048;-73
2022/09/01 08:32:07;;;;;;;2.95;1.05;;;;;;;26.31;34.03;102309.25;5083942;28;20039;-74
2022/09/01 08:34:33;;;;;;;2.17;0.70;;;;;;;26.59;33.46;102308.34;5080921;28;20500;-74
2022/09/01 08:36:59;;;;;;;1.92;0.85;;;;;;;26.63;33.35;102303.03;5063486;28;20770;-76
2022/09/01 08:39:26;;;;;;;1.42;0.80;;;;;;;26.82;32.82;102301.13;5079887;28;20032;-75
2022/09/01 08:42:10;;;;;;;2.45;1.15;;;;;;;26.83;32.95;102306.34;5080329;28;20033;-75
2022/09/01 08:45:02;;;;;;;2.25;0.85;;;;;;;26.49;32.34;102300.19;5081169;28;20071;-76
2022/09/01 08:47:29;;;;;;;2.65;0.90;;;;;;;26.38;32.71;102301.44;4989499;28;20045;-73
2022/09/01 08:49:56;;;;;;;2.53;1.10;;;;;;;26.77;32.58;102301.22;4990434;28;20105;-74
2022/09/01 08:52:31;;;;;;;2.85;1.20;;;;;;;27.52;31.16;102302.75;4989102;28;20054;-71
2022/09/01 08:55:37;;;;;;;1.65;0.73;;;;;;;27.15;31.69;102304.75;4984830;28;20199;-74
2022/09/01 08:58:03;;;;;;;3.95;0.75;;;;;;;27.58;30.29;102298.78;4970455;28;20046;-75
2022/09/01 09:00:38;;;;;;;3.25;0.60;;;;;;;27.55;30.18;102295.81;4980410;28;20053;-75
2022/09/01 09:03:19;;;;;;;1.92;0.70;;;;;;;27.86;30.22;102296.06;4978300;28;20031;-72
2022/09/01 09:06:23;;;;;;;3.35;0.88;;;;;;;27.70;30.45;102296.34;4980323;28;20042;-75
2022/09/01 09:08:56;;;;;;;2.17;0.80;;;;;;;27.57;30.60;102299.09;4978201;28;20098;-73
2022/09/01 09:11:44;;;;;;;4.10;1.20;;;;;;;27.67;31.23;102291.44;4980144;28;20043;-76
2022/09/01 09:14:24;;;;;;;2.67;0.70;;;;;;;27.97;29.41;102292.81;4971687;28;20391;-80
2022/09/01 09:16:53;;;;;;;2.03;0.75;;;;;;;27.86;28.61;102285.00;4968436;28;20049;-73
2022/09/01 09:19:21;;;;;;;2.75;0.50;;;;;;;28.19;28.44;102295.69;4976537;28;20162;-70
2022/09/01 09:21:49;;;;;;;4.28;0.77;;;;;;;28.44;28.67;102283.28;4981112;28;20050;-71
2022/09/01 09:24:20;;;;;;;5.80;0.90;;;;;;;28.80;28.59;102288.81;4989299;28;20087;-70
2022/09/01 09:26:53;;;;;;;1.58;0.50;;;;;;;28.15;28.56;102289.13;5025466;28;20041;-71
2022/09/01 09:29:21;;;;;;;2.45;0.95;;;;;;;28.53;27.69;102278.63;5025833;28;20048;-71
2022/09/01 09:31:47;;;;;;;1.50;0.55;;;;;;;28.56;28.22;102276.09;5048081;28;20518;-70
2022/09/01 09:34:33;;;;;;;2.45;0.60;;;;;;;29.18;27.96;102274.34;5078989;28;20162;-71
2022/09/01 09:37:22;;;;;;;1.85;0.70;;;;;;;29.01;27.28;102271.41;5057931;28;20060;-69
2022/09/01 09:40:29;;;;;;;0.88;0.52;;;;;;;28.78;27.30;102275.31;5082386;28;20029;-73
2022/09/01 09:43:14;;;;;;;2.65;0.73;;;;;;;29.22;27.70;102269.81;5072444;28;20047;-70
2022/09/01 09:45:40;;;;;;;2.47;0.77;;;;;;;29.26;27.21;102262.53;5080556;28;20526;-71
2022/09/01 09:48:27;;;;;;;2.72;0.65;;;;;;;29.30;27.58;102251.63;5063821;28;20035;-69
2022/09/01 09:50:52;;;;;;;1.42;0.50;;;;;;;29.13;27.87;102259.78;5085733;28;20777;-71
2022/09/01 09:53:25;;;;;;;1.90;0.85;;;;;;;29.49;27.23;102255.81;5084575;28;20032;-70
2022/09/01 09:55:50;;;;;;;3.28;0.70;;;;;;;29.13;27.68;102248.72;5075789;28;20040;-72
2022/09/01 09:58:16;;;;;;;8.15;0.82;;;;;;;29.26;27.95;102242.31;5077957;28;20131;-71
2022/09/01 10:01:03;;;;;;;2.65;0.75;;;;;;;29.07;27.80;102247.22;5082528;28;20048;-71
2022/09/01 10:03:41;;;;;;;1.38;0.65;;;;;;;29.10;27.93;102255.69;5082406;28;20025;-71
2022/09/01 10:06:11;;;;;;;1.77;0.70;;;;;;;29.27;27.46;102244.75;5087761;28;20020;-70
2022/09/01 10:08:44;;;;;;;3.33;0.57;;;;;;;29.23;27.38;102240.16;5086694;28;20067;-70
2022/09/01 10:11:36;;;;;;;2.75;1.20;;;;;;;28.87;27.82;102237.47;5082051;28;20055;-71
2022/09/01 10:14:15;;;;;;;3.15;0.90;;;;;;;29.44;27.07;102236.53;5092797;28;20107;-71
2022/09/01 10:16:41;;;;;;;3.30;0.73;;;;;;;29.08;27.40;102237.75;5086920;28;20512;-70
2022/09/01 10:19:12;;;;;;;1.85;0.85;;;;;;;29.75;26.70;102242.09;5092523;28;20119;-68
2022/09/01 10:21:40;;;;;;;3.63;0.73;;;;;;;29.99;26.68;102225.88;5067740;28;20028;-68
2022/09/01 10:24:28;;;;;;;3.03;0.68;;;;;;;29.73;27.00;102227.75;5083357;28;20023;-69
2022/09/01 10:26:57;;;;;;;1.58;0.82;;;;;;;29.77;26.78;102231.50;5083150;28;20105;-69
2022/09/01 10:29:28;;;;;;;1.52;0.80;;;;;;;30.02;26.40;102233.53;5087292;28;20487;-69
2022/09/01 10:31:55;;;;;;;4.68;1.10;;;;;;;30.01;26.79;102228.31;5084691;28;20036;-68
2022/09/01 10:34:22;;;;;;;2.75;1.10;;;;;;;29.77;26.77;102227.91;5083249;28;20044;-72
2022/09/01 10:36:49;;;;;;;6.38;0.60;;;;;;;30.20;26.18;102229.66;5092059;28;20060;-71
2022/09/01 10:39:18;;;;;;;1.88;0.60;;;;;;;30.33;25.34;102216.00;5074152;28;20023;-69
2022/09/01 10:41:55;;;;;;;6.13;0.52;;;;;;;30.36;25.36;102227.28;5088210;28;20035;-68
2022/09/01 10:44:29;;;;;;;4.55;0.70;;;;;;;30.03;25.97;102215.78;5067456;28;20173;-70
2022/09/01 10:46:56;;;;;;;2.92;0.55;;;;;;;29.54;26.07;102220.78;5067049;28;20177;-68
2022/09/01 10:49:44;;;;;;;1.30;0.43;;;;;;;30.12;25.04;102224.09;5086951;28;20142;-68
2022/09/01 10:52:09;;;;;;;6.88;0.40;;;;;;;30.09;24.72;102216.44;5086256;28;20046;-70
2022/09/01 10:54:37;;;;;;;1.67;0.40;;;;;;;30.39;25.31;102209.16;5087381;28;20036;-70
2022/09/01 10:57:10;;;;;;;7.30;0.85;;;;;;;30.62;24.92;102208.69;5080002;28;20054;-68
2022/09/01 10:59:35;;;;;;;1.17;0.43;;;;;;;30.58;24.42;102206.88;5062368;28;20090;-68
2022/09/01 11:02:16;;;;;;;7.07;0.70;;;;;;;29.97;25.44;102205.16;5080770;28;20549;-70
2022/09/01 11:04:44;;;;;;;0.93;0.50;;;;;;;30.37;24.56;102206.69;5082045;28;20059;-71
2022/09/01 11:07:24;;;;;;;0.73;0.47;;;;;;;29.94;24.72;102201.06;5082729;28;20046;-69
2022/09/01 11:10:20;;;;;;;1.38;0.43;;;;;;;30.42;24.34;102202.97;5082964;28;20036;-69
2022/09/01 11:12:51;;;;;;;0.68;0.50;;;;;;;30.69;23.67;102192.34;5086039;28;20045;-71
2022/09/01 11:15:16;;;;;;;2.05;0.47;;;;;;;30.39;23.15;102200.84;5092413;28;20032;-72
2022/09/01 11:17:44;;;;;;;3.25;0.90;;;;;;;30.90;22.85;102198.88;5089088;28;20579;-74
2022/09/01 11:20:30;;;;;;;0.52;0.30;;;;;;;30.90;22.70;102192.53;5072543;28;20063;-74
2022/09/01 11:23:05;;;;;;;3.88;0.38;;;;;;;30.96;23.38;102196.72;5070556;28;20039;-73
2022/09/01 11:25:43;;;;;;;1.40;0.45;;;;;;;31.10;23.27;102178.75;5087296;28;20043;-72
2022/09/01 11:28:22;;;;;;;1.33;0.50;;;;;;;30.84;22.71;102186.31;5085375;28;20066;-71
2022/09/01 11:30:57;;;;;;;1.92;0.55;;;;;;;30.75;23.24;102182.69;5066294;28;20043;-70
2022/09/01 11:33:59;;;;;;;0.93;0.30;;;;;;;31.41;22.31;102177.69;5080128;28;20044;-73
2022/09/01 11:36:36;;;;;;;1.05;0.50;;;;;;;30.81;22.81;102184.16;5007643;28;20797;-72
2022/09/01 11:39:18;;;;;;;6.05;0.60;;;;;;;30.90;22.87;102178.63;5007863;28;20050;-73
2022/09/01 11:42:36;;;;;;;0.82;0.38;;;;;;;30.90;22.55;102178.63;5007496;28;20521;-71
2022/09/01 11:45:12;;;;;;;4.03;0.50;;;;;;;31.56;21.66;102177.13;4929080;29;20067;-73
2022/09/01 11:47:42;;;;;;;0.88;0.47;;;;;;;32.24;21.94;102170.31;4930831;29;20134;-72